Aviation Digital Data Service (ADDS)

Output produced by METARs form (1610 UTC 01 September 2015)
found at http://aviationweather.gov/adds/metars/
 
KMGW 011129Z 0112/0212 26004KT P6SM SCT040 
     FM021000 00000KT 1 1/2SM BR SKC